createdAt,value
2019-05-10T00:02:13.648Z,86.54
2019-05-10T00:08:36.721Z,87.41
2019-05-10T00:14:51.431Z,87.57
2019-05-10T00:20:55.999Z,88.12
2019-05-10T00:27:00.624Z,88.62
2019-05-10T00:33:05.169Z,88.05
2019-05-10T00:39:09.854Z,88.40
2019-05-10T00:45:14.663Z,87.35
2019-05-10T00:51:19.290Z,87.24
2019-05-10T00:57:23.850Z,87.16
2019-05-10T01:03:28.389Z,87.27
2019-05-10T01:09:32.953Z,87.43
2019-05-10T01:15:37.505Z,87.91
2019-05-10T01:21:42.126Z,87.45
2019-05-10T01:27:46.823Z,88.21
2019-05-10T01:33:51.379Z,87.31
2019-05-10T01:39:55.934Z,87.52
2019-05-10T01:46:00.478Z,87.12
2019-05-10T01:52:05.188Z,86.34
2019-05-10T01:58:09.828Z,87.12
2019-05-10T02:04:17.528Z,87.41
2019-05-10T02:10:20.857Z,87.68
2019-05-10T02:16:25.492Z,87.42
2019-05-10T02:22:30.053Z,87.80
2019-05-10T02:28:34.682Z,87.72
2019-05-10T02:34:39.254Z,87.69
2019-05-10T02:40:43.939Z,87.18
2019-05-10T02:46:48.591Z,86.04
2019-05-10T02:52:53.129Z,86.07
2019-05-10T02:58:58.438Z,86.31
2019-05-10T03:05:06.394Z,86.32
2019-05-10T03:11:13.951Z,85.79
2019-05-10T03:17:20.495Z,85.57
2019-05-10T03:23:26.391Z,84.65
2019-05-10T03:29:31.028Z,84.30
2019-05-10T03:35:35.571Z,84.97
2019-05-10T03:41:40.415Z,85.31
2019-05-10T03:47:45.033Z,85.21
2019-05-10T03:53:49.585Z,85.91
2019-05-10T03:59:54.147Z,85.56
2019-05-10T04:05:58.772Z,84.89
2019-05-10T04:12:03.354Z,86.13
2019-05-10T04:18:07.965Z,86.31
2019-05-10T04:24:12.529Z,85.57
2019-05-10T04:30:18.104Z,84.23
2019-05-10T04:36:22.659Z,84.05
2019-05-10T04:42:27.234Z,83.10
2019-05-10T04:48:31.804Z,83.28
2019-05-10T04:54:36.357Z,83.09
2019-05-10T05:00:40.912Z,84.62
2019-05-10T05:06:45.461Z,85.41
2019-05-10T05:12:50.013Z,85.51
2019-05-10T05:18:54.591Z,84.57
2019-05-10T05:25:01.136Z,84.97
2019-05-10T05:31:05.434Z,84.27
2019-05-10T05:37:09.969Z,84.21
2019-05-10T05:43:14.523Z,82.44
2019-05-10T05:49:19.079Z,80.73
2019-05-10T05:55:23.630Z,80.26
2019-05-10T06:01:29.485Z,79.28
2019-05-10T06:07:37.913Z,78.73
2019-05-10T06:13:40.720Z,78.34
2019-05-10T06:19:45.280Z,75.90
2019-05-10T06:25:49.915Z,75.69
2019-05-10T06:31:54.476Z,76.21
2019-05-10T06:37:59.087Z,77.39
2019-05-10T06:44:03.706Z,78.20
2019-05-10T06:50:09.413Z,76.45
2019-05-10T06:56:14.072Z,75.63
2019-05-10T07:02:20.129Z,74.66
2019-05-10T07:08:24.990Z,72.75
2019-05-10T07:14:29.541Z,72.86
2019-05-10T07:20:34.091Z,71.63
2019-05-10T07:26:38.662Z,72.27
2019-05-10T07:32:43.304Z,71.63
2019-05-10T07:38:47.882Z,70.15
2019-05-10T07:44:52.431Z,69.86
2019-05-10T07:50:56.997Z,70.72
2019-05-10T07:57:01.604Z,70.05
2019-05-10T08:03:15.806Z,69.06
2019-05-10T08:09:12.778Z,69.29
2019-05-10T08:15:19.534Z,67.06
2019-05-10T08:21:26.247Z,66.29
2019-05-10T08:27:32.316Z,65.49
2019-05-10T08:33:36.398Z,66.81
2019-05-10T08:39:45.400Z,68.38
2019-05-10T08:45:49.498Z,70.25
2019-05-10T08:51:53.768Z,69.88
2019-05-10T08:58:02.922Z,70.18
2019-05-10T09:04:22.243Z,70.29
2019-05-10T09:10:27.114Z,69.74
2019-05-10T09:16:39.420Z,69.57
2019-05-10T09:22:38.970Z,69.17
2019-05-10T09:28:47.678Z,69.72
2019-05-10T09:34:54.130Z,69.53
2019-05-10T09:41:02.450Z,68.68
2019-05-10T09:47:07.212Z,65.98
2019-05-10T09:53:13.541Z,65.87
2019-05-10T09:59:18.064Z,66.73
2019-05-10T10:05:26.935Z,66.05
2019-05-10T10:11:31.808Z,66.88
2019-05-10T10:17:41.967Z,66.48
2019-05-10T10:23:43.783Z,66.16
2019-05-10T10:29:49.012Z,65.90
2019-05-10T10:35:56.461Z,63.80
2019-05-10T10:42:08.955Z,62.75
2019-05-10T10:48:13.059Z,62.41
2019-05-10T10:54:22.420Z,64.07
2019-05-10T11:00:39.282Z,65.89
2019-05-10T11:06:48.515Z,65.97
2019-05-10T11:12:56.226Z,64.21
2019-05-10T11:19:03.583Z,60.68
2019-05-10T11:25:12.036Z,60.04
2019-05-10T11:31:16.121Z,59.95
2019-05-10T11:37:31.079Z,56.51
2019-05-10T11:43:31.361Z,57.52
2019-05-10T11:49:40.751Z,56.24
2019-05-10T11:55:48.602Z,56.93
2019-05-10T12:01:58.039Z,57.85
2019-05-10T12:08:02.128Z,59.37
2019-05-10T12:14:07.122Z,61.07
2019-05-10T12:20:16.708Z,60.91
2019-05-10T12:32:27.077Z,57.74
2019-05-10T12:38:35.693Z,54.50
2019-05-10T12:44:38.856Z,47.80
2019-05-10T12:50:46.185Z,45.67
2019-05-10T12:56:50.939Z,52.25
2019-05-10T13:03:10.262Z,61.54
2019-05-10T13:09:02.014Z,68.02
2019-05-10T13:15:08.022Z,71.76
2019-05-10T13:21:20.022Z,71.10
2019-05-10T13:27:20.035Z,66.51
2019-05-10T13:33:28.974Z,63.46
2019-05-10T13:39:30.980Z,63.34
2019-05-10T13:45:37.623Z,63.91
2019-05-10T13:51:41.921Z,69.08
2019-05-10T13:57:46.477Z,69.32
2019-05-10T14:04:00.086Z,72.21
2019-05-10T14:09:57.306Z,75.13
2019-05-10T14:16:01.864Z,77.14
2019-05-10T14:22:06.426Z,79.08
2019-05-10T14:28:15.711Z,81.74
2019-05-10T14:34:17.310Z,82.44
2019-05-10T14:40:27.604Z,81.68
2019-05-10T14:46:28.213Z,81.11
2019-05-10T14:52:32.781Z,81.07
2019-05-10T14:58:37.406Z,82.96
2019-05-10T15:04:44.959Z,83.30
2019-05-10T15:10:48.267Z,84.88
2019-05-10T15:16:52.821Z,85.64
2019-05-10T15:22:57.395Z,86.22
2019-05-10T15:29:01.950Z,86.65
2019-05-10T15:35:08.889Z,87.36
2019-05-10T15:41:16.893Z,86.82
2019-05-10T15:47:22.032Z,87.44
2019-05-10T15:53:27.395Z,87.21
2019-05-10T15:59:32.255Z,88.08
2019-05-10T16:05:43.407Z,87.68
2019-05-10T16:11:43.092Z,87.64
2019-05-10T16:17:47.878Z,88.51
2019-05-10T16:23:52.678Z,88.80
2019-05-10T16:29:57.358Z,89.78
2019-05-10T16:36:02.106Z,85.78
2019-05-10T16:42:06.788Z,84.69
2019-05-10T16:48:11.507Z,83.87
2019-05-10T16:54:24.607Z,84.68
2019-05-10T17:00:23.604Z,85.75
2019-05-10T17:06:28.450Z,85.84
2019-05-10T17:12:33.483Z,85.58
2019-05-10T17:18:38.091Z,85.81
2019-05-10T17:24:42.749Z,86.10
2019-05-10T17:30:47.416Z,85.32
2019-05-10T17:36:58.117Z,83.25
2019-05-10T17:42:58.677Z,76.30
2019-05-10T17:49:03.276Z,76.25
2019-05-10T17:55:10.828Z,78.12
2019-05-10T18:01:14.610Z,80.36
2019-05-10T18:07:19.600Z,82.78
2019-05-10T18:13:24.262Z,84.24
2019-05-10T18:19:28.872Z,85.97
2019-05-10T18:25:34.415Z,87.70
2019-05-10T18:31:39.076Z,88.69
2019-05-10T18:37:44.533Z,89.23
2019-05-10T18:43:49.130Z,90.07
2019-05-10T18:49:53.833Z,90.31
2019-05-10T18:55:58.477Z,91.48
2019-05-10T19:02:03.232Z,91.18
2019-05-10T19:08:08.035Z,92.14
2019-05-10T19:14:12.825Z,92.80
2019-05-10T19:20:18.491Z,93.82
2019-05-10T19:26:23.834Z,93.84
2019-05-10T19:32:29.687Z,94.06
2019-05-10T19:38:34.277Z,94.41
2019-05-10T19:44:40.545Z,94.95
2019-05-10T19:50:45.253Z,95.52
2019-05-10T19:56:49.838Z,96.36
2019-05-10T20:02:54.432Z,95.46
2019-05-10T20:08:59.683Z,94.79
2019-05-10T20:15:06.065Z,94.54
2019-05-10T20:21:10.655Z,95.21
2019-05-10T20:27:15.244Z,94.24
2019-05-10T20:33:19.894Z,93.91
2019-05-10T20:39:24.437Z,95.38
2019-05-10T20:45:28.994Z,95.45
2019-05-10T20:51:33.596Z,94.61
2019-05-10T20:57:38.213Z,95.56
2019-05-10T21:03:42.863Z,95.47
2019-05-10T21:09:47.598Z,96.00
2019-05-10T21:15:52.133Z,95.80
2019-05-10T21:21:56.689Z,95.33
2019-05-10T21:28:01.246Z,96.14
2019-05-10T21:34:09.559Z,96.84
2019-05-10T21:40:12.646Z,96.38
2019-05-10T21:46:17.215Z,96.46
2019-05-10T21:52:21.834Z,96.79
2019-05-10T21:58:26.437Z,97.10
2019-05-10T22:04:30.976Z,97.31
2019-05-10T22:10:35.538Z,97.39
2019-05-10T22:16:40.108Z,97.29
2019-05-10T22:22:44.667Z,97.61
2019-05-10T22:28:49.209Z,96.92
2019-05-10T22:34:53.735Z,97.12
2019-05-10T22:40:58.286Z,97.09
2019-05-10T22:47:02.837Z,96.64
2019-05-10T22:53:07.471Z,96.93
2019-05-10T22:59:12.090Z,96.62
2019-05-10T23:05:16.863Z,96.52
2019-05-10T23:11:21.409Z,95.05
2019-05-10T23:17:25.977Z,95.17
2019-05-10T23:23:30.522Z,94.64
2019-05-10T23:29:35.689Z,96.45
2019-05-10T23:35:40.244Z,96.26
2019-05-10T23:41:44.867Z,97.52
2019-05-10T23:47:49.429Z,97.00
2019-05-10T23:53:54.020Z,95.17
2019-05-10T23:59:58.572Z,96.10
